Time;durP1;ratioP1;P1;durP2;ratioP2;P2;SDS_P1;SDS_P2;PMS_P1;PMS_P2;Temp;Humidity;BMP_temperature;BMP_pressure;BME280_temperature;BME280_humidity;BME280_pressure;Samples;Min_cycle;Max_cycle;Signal;HPM_P1;HPM_P2
2022/06/01 00:01:45;;;;;;;2.87;2.10;;;;;;;14.74;59.69;96486.38;5073014;28;20255;-74
2022/06/01 00:04:11;;;;;;;3.07;1.97;;;;;;;14.78;59.77;96492.72;5073225;28;20181;-74
2022/06/01 00:06:37;;;;;;;2.20;2.00;;;;;;;14.82;59.53;96491.94;5073711;28;20181;-74
2022/06/01 00:09:02;;;;;;;2.03;1.93;;;;;;;14.83;59.56;96484.81;5067005;28;20611;-74
2022/06/01 00:11:28;;;;;;;2.30;2.10;;;;;;;14.78;59.73;96484.81;5073300;28;20238;-74
2022/06/01 00:13:53;;;;;;;2.33;2.10;;;;;;;14.74;60.14;96492.44;5070954;28;20195;-74
2022/06/01 00:16:19;;;;;;;2.50;1.93;;;;;;;14.83;59.93;96485.59;5072592;28;20182;-74
2022/06/01 00:18:44;;;;;;;3.30;2.20;;;;;;;14.93;59.53;96487.50;5072988;28;20249;-73
2022/06/01 00:21:10;;;;;;;2.40;2.20;;;;;;;15.02;58.83;96485.91;5073153;28;20264;-74
2022/06/01 00:23:36;;;;;;;3.50;2.13;;;;;;;15.13;57.83;96474.31;5073196;28;20278;-74
2022/06/01 00:26:02;;;;;;;2.37;2.17;;;;;;;15.03;58.23;96482.22;5072831;28;20530;-74
2022/06/01 00:28:27;;;;;;;1.93;1.83;;;;;;;14.96;58.45;96479.03;5073442;28;20189;-74
2022/06/01 00:30:53;;;;;;;2.30;2.07;;;;;;;14.96;58.17;96477.19;5072940;28;20188;-74
2022/06/01 00:33:19;;;;;;;1.90;1.80;;;;;;;15.02;58.16;96474.56;5073422;28;20197;-74
2022/06/01 00:35:44;;;;;;;2.87;2.17;;;;;;;14.98;57.76;96479.59;5072366;28;20189;-74
2022/06/01 00:38:10;;;;;;;3.00;2.00;;;;;;;14.77;59.30;96494.56;5072275;28;20256;-74
2022/06/01 00:40:36;;;;;;;2.07;1.97;;;;;;;14.82;59.44;96496.44;5054534;28;20585;-74
2022/06/01 00:43:17;;;;;;;2.50;2.30;;;;;;;14.88;59.44;96490.88;5073088;28;20209;-74
2022/06/01 00:45:42;;;;;;;3.30;1.93;;;;;;;15.03;59.32;96498.06;5072980;28;20201;-74
2022/06/01 00:48:08;;;;;;;2.87;2.00;;;;;;;14.88;59.06;96495.38;5072290;28;20209;-74
2022/06/01 00:50:39;;;;;;;3.47;2.23;;;;;;;14.74;60.07;96504.84;5071707;28;20185;-74
2022/06/01 00:53:27;;;;;;;4.17;2.10;;;;;;;14.80;60.71;96498.53;5072785;28;20181;-74
2022/06/01 00:56:04;;;;;;;2.03;1.83;;;;;;;14.65;61.77;96494.03;5072802;28;20181;-74
2022/06/01 00:58:34;;;;;;;2.43;2.23;;;;;;;14.56;62.97;96501.63;5072417;28;20271;-74
2022/06/01 01:01:00;;;;;;;2.43;2.10;;;;;;;14.46;64.04;96498.16;5072497;28;20161;-74
2022/06/01 01:03:36;;;;;;;2.90;2.27;;;;;;;14.31;64.39;96496.22;5071574;28;20173;-74
2022/06/01 01:06:17;;;;;;;2.67;2.40;;;;;;;14.16;65.07;96493.50;5072544;28;20188;-74
2022/06/01 01:08:44;;;;;;;2.77;2.40;;;;;;;14.38;64.30;96506.53;5071426;28;20203;-74
2022/06/01 01:11:11;;;;;;;4.33;2.50;;;;;;;14.31;64.53;96500.69;5072445;28;20281;-74
2022/06/01 01:13:40;;;;;;;3.87;2.40;;;;;;;14.11;65.93;96502.19;5070284;28;20205;-74
2022/06/01 01:16:06;;;;;;;2.90;2.57;;;;;;;14.05;66.17;96492.66;5072512;28;20190;-74
2022/06/01 01:18:38;;;;;;;3.77;2.63;;;;;;;13.91;66.48;96499.44;5072246;28;20276;-74
2022/06/01 01:21:29;;;;;;;2.93;2.37;;;;;;;14.03;65.95;96489.50;5072615;28;20231;-74
2022/06/01 01:24:11;;;;;;;2.80;2.57;;;;;;;13.96;66.73;96493.41;5072240;28;20189;-74
2022/06/01 01:26:37;;;;;;;3.00;2.33;;;;;;;13.95;66.84;96499.72;5072640;28;20177;-74
2022/06/01 01:29:10;;;;;;;2.47;2.27;;;;;;;14.03;66.18;96488.69;5072481;28;20182;-74
2022/06/01 01:31:38;;;;;;;2.70;2.43;;;;;;;13.96;66.33;96486.28;5072861;28;20248;-74
2022/06/01 01:34:04;;;;;;;2.70;2.50;;;;;;;14.00;66.39;96487.34;5072129;28;20630;-74
2022/06/01 01:36:38;;;;;;;4.00;2.40;;;;;;;14.07;66.19;96485.28;5071216;28;20232;-74
2022/06/01 01:39:14;;;;;;;2.80;2.53;;;;;;;13.99;67.04;96487.59;5072486;28;20217;-74
2022/06/01 01:41:44;;;;;;;4.57;2.70;;;;;;;14.01;67.04;96483.69;5072633;28;20173;-74
2022/06/01 01:44:15;;;;;;;2.93;2.63;;;;;;;13.99;67.09;96485.75;5071972;28;20276;-74
2022/06/01 01:46:45;;;;;;;2.67;2.40;;;;;;;13.95;66.98;96478.63;5072155;28;20205;-74
2022/06/01 01:49:10;;;;;;;3.27;2.60;;;;;;;13.78;67.70;96489.31;5071863;28;20190;-73
2022/06/01 01:51:37;;;;;;;2.83;2.63;;;;;;;13.89;67.41;96490.19;5072228;28;20189;-74
2022/06/01 01:54:17;;;;;;;2.47;2.23;;;;;;;13.79;67.82;96483.00;5072086;28;20181;-74
2022/06/01 02:00:17;;;;;;;3.83;2.80;;;;;;;13.96;66.07;96488.13;5071372;28;20270;-74
2022/06/01 02:02:48;;;;;;;2.97;2.47;;;;;;;13.99;66.25;96490.25;5070402;28;20173;-74
2022/06/01 02:08:46;;;;;;;2.93;2.73;;;;;;;13.99;66.87;96493.66;5070759;28;20263;-74
2022/06/01 02:14:23;;;;;;;2.60;2.40;;;;;;;13.77;68.46;96494.84;5071168;28;20552;-74
2022/06/01 02:17:15;;;;;;;3.93;2.60;;;;;;;13.68;68.79;96500.59;5057807;28;20272;-74
2022/06/01 02:19:59;;;;;;;3.90;2.47;;;;;;;13.61;68.99;96500.00;5075427;28;20202;-74
2022/06/01 02:22:25;;;;;;;2.83;2.40;;;;;;;13.56;69.61;96497.34;5074890;28;20177;-74
2022/06/01 02:24:51;;;;;;;4.53;2.50;;;;;;;13.37;70.38;96496.16;5075744;28;20177;-74
2022/06/01 02:27:18;;;;;;;2.90;2.70;;;;;;;13.42;70.75;96498.81;5075212;28;20642;-74
2022/06/01 02:29:55;;;;;;;3.50;3.00;;;;;;;13.40;71.02;96492.22;5075096;28;20200;-74
2022/06/01 02:32:22;;;;;;;2.87;2.67;;;;;;;13.49;71.27;96488.84;5074734;28;20169;-74
2022/06/01 02:34:49;;;;;;;3.17;2.90;;;;;;;13.34;72.35;96488.75;5074906;28;20544;-74
2022/06/01 02:37:16;;;;;;;3.10;2.80;;;;;;;13.30;72.83;96485.03;5074877;28;20221;-73
2022/06/01 02:39:45;;;;;;;3.17;2.73;;;;;;;13.10;74.32;96484.81;5074812;28;20306;-74
2022/06/01 02:42:25;;;;;;;2.90;2.70;;;;;;;13.20;74.01;96495.47;5074786;28;20200;-74
2022/06/01 02:44:59;;;;;;;6.77;2.90;;;;;;;13.23;74.27;96481.81;5074911;28;20178;-74
2022/06/01 02:47:27;;;;;;;4.47;2.77;;;;;;;13.09;74.99;96481.41;5074583;28;20170;-74
2022/06/01 02:49:53;;;;;;;7.13;3.33;;;;;;;13.02;75.31;96485.28;5074460;28;20192;-74
2022/06/01 02:52:18;;;;;;;3.97;3.17;;;;;;;12.96;76.17;96486.25;5074396;28;20178;-74
2022/06/01 02:54:44;;;;;;;4.13;2.80;;;;;;;12.93;76.54;96494.66;5074604;28;20197;-74
2022/06/01 02:57:10;;;;;;;4.00;3.43;;;;;;;12.97;76.51;96488.66;5056427;28;20182;-74
2022/06/01 02:59:36;;;;;;;3.13;2.93;;;;;;;12.86;77.33;96490.41;5074694;28;20204;-74
2022/06/01 03:02:03;;;;;;;3.43;2.80;;;;;;;12.79;77.79;96492.41;5074466;28;20641;-74
2022/06/01 03:04:29;;;;;;;3.50;3.20;;;;;;;12.61;78.88;96487.47;5074254;28;20642;-74
2022/06/01 03:06:54;;;;;;;4.23;3.27;;;;;;;12.64;78.96;96483.56;5074011;28;20246;-75
2022/06/01 03:09:20;;;;;;;4.00;3.17;;;;;;;12.75;78.96;96490.53;5073443;28;20310;-74
2022/06/01 03:11:45;;;;;;;3.40;2.80;;;;;;;12.72;79.47;96493.63;5054522;28;20181;-74
2022/06/01 03:14:11;;;;;;;4.03;3.73;;;;;;;12.70;79.02;96486.03;5073950;28;20189;-74
2022/06/01 03:16:37;;;;;;;6.20;2.70;;;;;;;12.90;78.24;96486.22;5074676;28;20185;-74
2022/06/01 03:19:03;;;;;;;3.43;2.73;;;;;;;12.91;78.19;96487.00;5074213;28;20283;-74
2022/06/01 03:21:28;;;;;;;4.00;2.90;;;;;;;12.61;79.22;96487.47;5074100;28;20272;-74
2022/06/01 03:23:55;;;;;;;3.57;3.00;;;;;;;12.83;78.25;96488.25;5073823;28;20217;-74
2022/06/01 03:26:21;;;;;;;5.00;2.93;;;;;;;12.98;77.53;96487.63;5073445;28;20234;-74
2022/06/01 03:28:46;;;;;;;5.80;3.20;;;;;;;13.00;77.13;96487.34;5073818;28;20545;-74
2022/06/01 03:31:12;;;;;;;2.70;2.50;;;;;;;13.09;77.05;96485.88;5056361;28;20187;-74
2022/06/01 03:33:37;;;;;;;3.33;3.03;;;;;;;13.08;77.04;96492.97;5073637;28;20239;-74
2022/06/01 03:36:04;;;;;;;3.93;2.93;;;;;;;13.03;77.47;96495.56;5073552;28;20695;-74
2022/06/01 03:38:30;;;;;;;3.37;3.07;;;;;;;13.01;77.95;96487.09;5073227;28;20221;-75
2022/06/01 03:40:56;;;;;;;4.07;2.77;;;;;;;13.17;77.31;96495.97;5073590;28;20595;-74
2022/06/01 03:43:21;;;;;;;3.47;2.80;;;;;;;13.11;77.47;96497.72;5073496;28;20261;-74
2022/06/01 03:45:55;;;;;;;3.27;2.97;;;;;;;13.08;77.93;96500.88;5074173;28;20510;-74
2022/06/01 03:48:22;;;;;;;2.90;2.67;;;;;;;13.14;77.63;96497.28;5073766;28;20169;-74
2022/06/01 03:50:47;;;;;;;3.77;2.57;;;;;;;12.95;78.61;96492.56;5073715;28;20184;-74
2022/06/01 03:53:13;;;;;;;4.00;2.70;;;;;;;13.14;77.95;96493.84;5073503;28;20208;-74
2022/06/01 03:55:39;;;;;;;2.80;2.60;;;;;;;13.24;77.78;96497.34;5073538;28;20211;-74
2022/06/01 03:58:05;;;;;;;2.47;2.30;;;;;;;13.55;76.46;96494.94;5073396;28;20692;-74
2022/06/01 04:00:32;;;;;;;2.90;2.70;;;;;;;13.64;76.00;96490.81;5073623;28;20200;-74
2022/06/01 04:02:57;;;;;;;3.00;2.70;;;;;;;13.79;75.27;96500.66;5073890;28;20264;-74
2022/06/01 04:05:23;;;;;;;3.67;2.27;;;;;;;13.98;74.48;96502.66;5072869;28;20265;-74
2022/06/01 04:07:49;;;;;;;2.60;2.43;;;;;;;14.19;73.56;96508.81;5070150;28;20185;-74
2022/06/01 04:10:15;;;;;;;2.30;2.13;;;;;;;14.44;72.95;96506.31;5045463;28;20185;-74
2022/06/01 04:12:41;;;;;;;5.83;2.37;;;;;;;14.87;71.17;96501.72;5071834;28;20565;-74
2022/06/01 04:15:11;;;;;;;2.53;2.20;;;;;;;14.92;70.93;96504.38;5073602;28;20185;-74
2022/06/01 04:17:37;;;;;;;2.53;2.27;;;;;;;15.10;70.62;96508.38;5073826;28;20545;-74
2022/06/01 04:20:03;;;;;;;7.90;2.20;;;;;;;15.30;69.91;96509.19;5072867;28;20201;-74
2022/06/01 04:22:29;;;;;;;2.87;2.27;;;;;;;15.32;69.58;96507.06;5073087;28;20200;-75
2022/06/01 04:24:54;;;;;;;2.63;2.10;;;;;;;15.57;68.25;96502.88;5055221;28;20185;-74
2022/06/01 04:27:20;;;;;;;2.90;2.00;;;;;;;15.34;69.34;96502.31;5073159;28;20178;-74
2022/06/01 04:29:45;;;;;;;3.13;2.00;;;;;;;15.84;67.26;96508.66;5073011;28;20181;-74
2022/06/01 04:32:14;;;;;;;2.50;2.30;;;;;;;16.08;66.22;96503.63;5072758;28;20626;-74
2022/06/01 04:34:39;;;;;;;3.13;2.27;;;;;;;15.92;66.59;96507.34;5054810;28;20192;-74
2022/06/01 04:37:05;;;;;;;2.37;2.00;;;;;;;15.89;66.70;96508.66;5053181;28;20663;-74
2022/06/01 04:39:31;;;;;;;2.33;2.10;;;;;;;16.26;65.76;96497.75;5072511;28;20205;-74
2022/06/01 04:41:56;;;;;;;2.83;2.53;;;;;;;16.16;65.85;96506.50;5072508;28;20177;-75
2022/06/01 04:44:22;;;;;;;2.17;2.07;;;;;;;16.05;66.50;96499.66;5072958;28;20669;-74
2022/06/01 04:46:47;;;;;;;2.10;2.00;;;;;;;15.97;66.65;96502.84;5072512;28;20182;-75
2022/06/01 04:49:13;;;;;;;3.00;2.40;;;;;;;16.29;65.82;96501.69;5072693;28;20567;-75
2022/06/01 04:51:38;;;;;;;2.97;2.03;;;;;;;16.39;65.49;96512.25;5072732;28;20173;-75
2022/06/01 04:54:05;;;;;;;2.83;2.07;;;;;;;16.51;64.94;96508.25;5072609;28;20193;-75
2022/06/01 04:56:31;;;;;;;4.35;1.90;;;;;;;16.73;64.10;96507.13;5072938;28;20181;-76
2022/06/01 04:58:56;;;;;;;5.18;2.25;;;;;;;16.54;64.82;96505.06;5072916;28;20208;-75
2022/06/01 05:01:22;;;;;;;3.20;2.20;;;;;;;17.00;64.03;96504.84;5072454;28;20211;-74
2022/06/01 05:03:47;;;;;;;3.87;2.53;;;;;;;17.19;62.64;96505.00;5072189;28;20271;-74
2022/06/01 05:06:13;;;;;;;6.60;2.63;;;;;;;17.23;62.53;96501.53;5072164;28;20650;-73
2022/06/01 05:08:39;;;;;;;4.82;2.40;;;;;;;17.26;62.62;96501.00;5067128;28;20190;-73
2022/06/01 05:11:05;;;;;;;4.40;2.15;;;;;;;17.19;62.51;96497.84;5070361;28;20186;-73
2022/06/01 05:13:30;;;;;;;3.65;2.20;;;;;;;17.66;61.48;96499.94;5072390;28;20192;-74
2022/06/01 05:15:59;;;;;;;2.38;2.17;;;;;;;17.44;62.19;96505.59;5072280;28;20177;-74
2022/06/01 05:18:25;;;;;;;2.65;2.35;;;;;;;17.72;61.42;96501.44;5072163;28;20193;-73
2022/06/01 05:20:51;;;;;;;4.07;2.30;;;;;;;17.84;61.02;96509.03;5072254;28;20181;-73
2022/06/01 05:23:17;;;;;;;2.88;2.15;;;;;;;17.73;61.50;96502.22;5072659;28;20307;-74
2022/06/01 05:25:45;;;;;;;2.25;2.00;;;;;;;17.81;61.10;96499.00;5072161;28;20603;-74
2022/06/01 05:28:12;;;;;;;3.17;2.50;;;;;;;18.29;59.75;96497.97;5054791;28;20189;-74
2022/06/01 05:30:37;;;;;;;2.30;2.10;;;;;;;18.18;60.58;96507.09;5072428;28;20188;-74
2022/06/01 05:33:03;;;;;;;4.57;2.35;;;;;;;18.34;59.88;96504.28;5073341;28;20177;-74
2022/06/01 05:35:29;;;;;;;2.42;2.22;;;;;;;18.67;59.13;96506.81;5071545;28;20186;-74
2022/06/01 05:37:54;;;;;;;2.92;1.80;;;;;;;18.73;59.09;96502.25;5071450;28;20307;-74
2022/06/01 05:40:19;;;;;;;3.60;2.15;;;;;;;18.85;58.40;96501.84;5072017;28;20561;-74
2022/06/01 05:42:45;;;;;;;3.10;2.20;;;;;;;19.02;58.13;96494.16;5072743;28;20653;-75
2022/06/01 05:45:11;;;;;;;2.60;1.90;;;;;;;19.16;58.15;96497.69;5072050;28;20625;-74
2022/06/01 05:47:37;;;;;;;4.07;2.05;;;;;;;18.91;58.37;96509.44;5074930;28;20185;-74
2022/06/01 05:50:04;;;;;;;2.05;1.95;;;;;;;19.01;58.41;96508.50;5075454;28;20595;-75
2022/06/01 05:52:29;;;;;;;3.72;1.90;;;;;;;19.18;57.87;96500.84;5076010;28;20181;-74
2022/06/01 05:54:55;;;;;;;3.33;2.20;;;;;;;19.26;57.62;96502.84;5076054;28;20540;-74
2022/06/01 05:57:20;;;;;;;4.38;2.10;;;;;;;19.41;56.94;96502.63;5057982;28;20182;-73
2022/06/01 05:59:46;;;;;;;2.70;2.10;;;;;;;19.42;57.21;96501.53;5076074;28;20201;-74
2022/06/01 06:02:11;;;;;;;3.53;2.10;;;;;;;19.57;57.15;96507.72;5058027;28;20181;-74
2022/06/01 06:04:37;;;;;;;2.45;2.25;;;;;;;19.53;57.15;96502.22;5075536;28;20231;-74
2022/06/01 06:07:02;;;;;;;3.75;2.20;;;;;;;19.81;56.73;96509.19;5075732;28;20235;-74
2022/06/01 06:09:28;;;;;;;4.90;2.10;;;;;;;19.91;56.66;96505.56;5072088;28;20284;-74
2022/06/01 06:11:53;;;;;;;1.98;1.80;;;;;;;19.94;56.42;96507.66;5073709;28;20183;-73
2022/06/01 06:14:20;;;;;;;2.80;2.22;;;;;;;19.86;56.37;96505.66;5076420;28;20191;-74
2022/06/01 06:16:46;;;;;;;2.25;2.10;;;;;;;19.96;56.27;96510.78;5076131;28;20177;-74
2022/06/01 06:19:14;;;;;;;2.20;1.95;;;;;;;19.91;56.09;96509.00;5075097;28;20204;-72
2022/06/01 06:21:39;;;;;;;2.33;2.13;;;;;;;20.08;56.18;96518.31;5060680;28;20192;-73
2022/06/01 06:24:09;;;;;;;3.72;2.35;;;;;;;19.88;56.94;96514.13;5075707;28;20189;-74
2022/06/01 06:26:35;;;;;;;4.40;2.20;;;;;;;20.16;56.44;96522.97;5076427;28;20193;-73
2022/06/01 06:29:02;;;;;;;2.20;2.00;;;;;;;20.13;55.74;96519.00;5074287;28;20177;-73
2022/06/01 06:31:28;;;;;;;3.30;2.20;;;;;;;20.36;55.80;96513.81;5074533;28;20185;-73
2022/06/01 06:33:55;;;;;;;2.55;1.90;;;;;;;20.45;55.61;96517.41;5075469;28;20188;-74
2022/06/01 06:36:21;;;;;;;2.50;2.05;;;;;;;20.58;55.25;96516.59;5074082;28;20193;-74
2022/06/01 06:38:47;;;;;;;3.15;1.90;;;;;;;20.81;54.28;96518.25;5075193;28;20209;-74
2022/06/01 06:41:12;;;;;;;3.00;1.75;;;;;;;21.06;54.05;96514.28;5076217;28;20538;-75
2022/06/01 06:43:38;;;;;;;2.85;2.20;;;;;;;21.16;53.13;96511.41;5074863;28;20217;-74
2022/06/01 06:46:09;;;;;;;2.08;1.88;;;;;;;21.25;52.95;96512.25;5074092;28;20642;-75
2022/06/01 06:48:36;;;;;;;2.40;1.85;;;;;;;21.37;52.97;96501.84;5074227;28;20245;-74
2022/06/01 06:51:01;;;;;;;2.30;1.90;;;;;;;21.46;52.72;96508.03;5074680;28;20209;-76
2022/06/01 06:53:27;;;;;;;4.38;2.33;;;;;;;21.26;53.08;96513.84;5074120;28;20274;-74
2022/06/01 06:55:53;;;;;;;1.85;1.75;;;;;;;21.45;52.45;96505.69;5074676;28;20193;-76
2022/06/01 06:58:18;;;;;;;2.80;2.15;;;;;;;21.66;52.09;96519.31;5074955;28;20211;-76
2022/06/01 07:00:44;;;;;;;2.38;1.90;;;;;;;21.42;52.68;96508.94;5073017;28;20299;-76
2022/06/01 07:03:10;;;;;;;2.47;1.95;;;;;;;21.23;53.02;96511.00;5071943;28;20549;-76
2022/06/01 07:08:20;;;;;;;2.80;1.60;;;;;;;21.50;52.67;96510.91;5066530;28;20245;-75
2022/06/01 07:10:45;;;;;;;2.70;2.30;;;;;;;21.35;52.75;96514.69;5072526;28;20185;-75
2022/06/01 07:13:11;;;;;;;2.70;1.70;;;;;;;21.49;52.89;96509.31;5074147;28;20255;-75
2022/06/01 07:15:37;;;;;;;3.25;2.10;;;;;;;21.65;51.68;96502.53;5073958;28;20177;-75
2022/06/01 07:18:04;;;;;;;2.65;1.77;;;;;;;21.61;51.14;96508.78;5074591;28;20189;-75
2022/06/01 07:20:29;;;;;;;3.28;1.80;;;;;;;21.49;50.28;96502.09;5056414;28;20228;-75
2022/06/01 07:22:56;;;;;;;2.25;1.85;;;;;;;21.20;50.60;96503.59;5074369;28;20209;-74
2022/06/01 07:25:21;;;;;;;3.00;2.08;;;;;;;21.57;50.43;96509.38;5073540;28;20594;-75
2022/06/01 07:27:48;;;;;;;3.50;1.92;;;;;;;21.45;50.42;96503.81;5073872;28;20268;-75
2022/06/01 07:30:15;;;;;;;3.60;1.65;;;;;;;21.49;49.79;96514.66;5074240;28;20197;-75
2022/06/01 07:32:46;;;;;;;2.30;2.08;;;;;;;21.32;48.82;96515.31;5073808;28;20188;-75
2022/06/01 07:35:12;;;;;;;1.92;1.80;;;;;;;21.16;49.14;96519.41;5075579;28;20200;-75
2022/06/01 07:43:06;;;;;;;3.53;1.60;;;;;;;21.53;47.40;96523.63;5073533;28;20184;-76
2022/06/01 07:45:39;;;;;;;2.40;1.63;;;;;;;21.52;47.79;96516.72;5072788;28;20192;-76
2022/06/01 07:48:07;;;;;;;3.63;1.75;;;;;;;21.53;48.41;96513.75;5073955;28;20178;-75
2022/06/01 07:50:34;;;;;;;1.77;1.55;;;;;;;21.75;47.73;96520.16;5073522;28;20196;-76
2022/06/01 07:53:00;;;;;;;2.45;1.73;;;;;;;21.93;46.80;96516.50;5073718;28;20288;-76
2022/06/01 07:55:27;;;;;;;1.38;1.38;;;;;;;21.81;46.43;96521.63;5073326;28;20216;-75
2022/06/01 07:57:52;;;;;;;2.25;1.55;;;;;;;22.01;45.41;96520.38;5073753;28;20205;-75
2022/06/01 08:00:18;;;;;;;1.83;1.50;;;;;;;22.11;45.10;96509.44;5073008;28;20240;-75
2022/06/01 08:02:44;;;;;;;5.63;1.85;;;;;;;22.17;45.45;96511.66;5073856;28;20208;-75
2022/06/01 08:05:11;;;;;;;1.90;1.67;;;;;;;22.11;44.37;96514.75;5073959;28;20650;-75
2022/06/01 08:07:36;;;;;;;1.55;1.45;;;;;;;22.09;43.79;96506.25;5071970;28;20193;-75
2022/06/01 08:10:03;;;;;;;1.98;1.30;;;;;;;22.20;44.03;96510.25;5066843;28;20669;-76
2022/06/01 08:15:13;;;;;;;1.95;1.50;;;;;;;22.10;42.82;96513.97;5072700;28;20603;-75
2022/06/01 08:17:38;;;;;;;1.55;1.45;;;;;;;22.07;40.61;96503.13;5073743;28;20193;-76
2022/06/01 08:20:04;;;;;;;1.30;1.30;;;;;;;22.13;42.18;96509.88;5073097;28;20201;-75
2022/06/01 08:22:30;;;;;;;1.65;1.40;;;;;;;22.52;39.10;96501.88;5073009;28;20200;-76
2022/06/01 08:24:55;;;;;;;2.80;1.58;;;;;;;22.56;38.81;96502.06;5072947;28;20192;-76
2022/06/01 08:27:21;;;;;;;1.58;1.48;;;;;;;22.35;39.88;96496.47;5072722;28;20567;-75
2022/06/01 08:29:46;;;;;;;1.60;1.50;;;;;;;22.64;40.33;96498.63;5072411;28;20197;-76
2022/06/01 08:32:12;;;;;;;1.50;1.40;;;;;;;22.54;39.92;96499.69;5073048;28;20205;-76
2022/06/01 08:34:38;;;;;;;1.40;1.17;;;;;;;22.72;37.80;96495.22;5073411;28;20274;-75
2022/06/01 08:37:05;;;;;;;1.60;1.50;;;;;;;22.65;38.61;96497.53;5072463;28;20223;-76
2022/06/01 08:39:31;;;;;;;2.95;1.65;;;;;;;22.85;37.79;96491.63;5054631;28;20213;-75
2022/06/01 08:42:00;;;;;;;2.45;1.20;;;;;;;22.87;38.34;96500.13;5072609;28;20258;-76
2022/06/01 08:44:35;;;;;;;2.20;1.35;;;;;;;22.47;36.43;96504.69;5072739;28;20556;-75
2022/06/01 08:47:11;;;;;;;2.92;1.40;;;;;;;22.46;35.53;96505.78;5073331;28;20171;-75
2022/06/01 08:49:38;;;;;;;1.25;1.15;;;;;;;22.67;35.06;96498.00;5073627;28;20184;-76
2022/06/01 08:52:04;;;;;;;1.17;1.10;;;;;;;23.02;35.11;96510.34;5073114;28;20187;-76
2022/06/01 08:54:30;;;;;;;1.40;1.30;;;;;;;23.07;35.58;96499.50;5072800;28;20276;-76
2022/06/01 08:57:03;;;;;;;1.95;1.60;;;;;;;23.21;36.05;96512.75;5073000;28;20285;-75
2022/06/01 08:59:51;;;;;;;1.95;1.35;;;;;;;23.16;35.96;96513.69;5072549;28;20200;-75
2022/06/01 09:02:33;;;;;;;1.70;1.60;;;;;;;23.39;36.12;96510.88;5073384;28;20208;-75
2022/06/01 09:05:29;;;;;;;1.40;1.30;;;;;;;23.40;35.04;96507.09;5073985;28;20181;-76
2022/06/01 09:08:01;;;;;;;1.40;1.35;;;;;;;23.29;33.82;96514.66;5060196;28;20260;-75
2022/06/01 09:10:58;;;;;;;1.70;1.60;;;;;;;23.04;33.92;96515.41;5048848;28;20650;-76
2022/06/01 09:13:26;;;;;;;1.70;1.55;;;;;;;23.29;33.67;96529.91;5054733;28;20181;-76
2022/06/01 09:16:00;;;;;;;1.20;1.10;;;;;;;23.23;32.74;96520.47;5072531;28;20188;-75
2022/06/01 09:18:28;;;;;;;1.45;1.25;;;;;;;23.38;33.91;96520.00;5072444;28;20185;-76
2022/06/01 09:23:41;;;;;;;2.63;1.20;;;;;;;24.30;32.85;96523.97;5074598;28;20760;-76
2022/06/01 09:26:06;;;;;;;1.40;1.27;;;;;;;23.88;33.97;96522.97;5076241;28;20314;-76
2022/06/01 09:28:39;;;;;;;1.20;1.10;;;;;;;23.79;33.26;96531.03;5076759;28;20289;-75
2022/06/01 09:31:15;;;;;;;1.63;1.25;;;;;;;22.86;34.17;96530.63;5077888;28;20644;-75
2022/06/01 09:33:40;;;;;;;1.42;1.02;;;;;;;22.88;33.70;96520.41;5076012;28;20173;-75
2022/06/01 09:36:08;;;;;;;1.55;1.45;;;;;;;23.04;33.16;96518.06;5077008;28;20184;-76
2022/06/01 09:38:49;;;;;;;1.55;1.17;;;;;;;22.62;33.22;96524.88;5076231;28;20185;-76
2022/06/01 09:41:24;;;;;;;1.20;1.08;;;;;;;22.88;32.81;96528.44;5076152;28;20303;-75
2022/06/01 09:44:04;;;;;;;1.48;1.30;;;;;;;22.76;32.75;96533.59;5077070;28;20520;-75
2022/06/01 09:46:47;;;;;;;1.17;1.17;;;;;;;23.04;31.71;96526.09;5075991;28;20189;-76
2022/06/01 09:49:24;;;;;;;1.30;1.20;;;;;;;23.12;32.33;96534.16;5066396;28;20213;-76
2022/06/01 09:51:55;;;;;;;1.10;1.10;;;;;;;23.45;32.25;96533.69;5076182;28;20185;-75
2022/06/01 09:54:23;;;;;;;1.23;1.13;;;;;;;23.24;33.46;96541.53;5076618;28;20177;-75
2022/06/01 09:56:49;;;;;;;1.60;1.20;;;;;;;23.66;31.52;96537.31;5075466;28;20654;-75
2022/06/01 10:08:18;;;;;;;1.25;1.15;;;;;;;23.31;31.55;96533.81;5073279;28;20231;-76
2022/06/01 10:11:02;;;;;;;1.20;1.20;;;;;;;23.33;31.17;96536.19;5076029;28;20653;-75
2022/06/01 10:13:46;;;;;;;2.80;2.28;;;;;;;23.12;31.30;96533.34;5076365;28;20177;-76
2022/06/01 10:16:19;;;;;;;1.05;1.00;;;;;;;23.36;30.90;96533.66;5075817;28;20264;-75
2022/06/01 10:18:46;;;;;;;1.02;1.02;;;;;;;22.87;31.52;96542.88;5075618;28;20178;-75
2022/06/01 10:21:17;;;;;;;1.35;1.27;;;;;;;22.82;31.91;96537.69;5061948;28;20191;-74
2022/06/01 10:23:54;;;;;;;2.35;1.30;;;;;;;23.11;31.50;96545.16;5075872;28;20575;-75
2022/06/01 10:26:31;;;;;;;1.20;1.10;;;;;;;23.21;31.36;96540.28;5075658;28;20585;-75
2022/06/01 10:29:11;;;;;;;1.27;1.17;;;;;;;23.33;31.32;96541.53;5075559;28;20209;-75
2022/06/01 10:31:46;;;;;;;1.85;1.00;;;;;;;23.38;31.15;96528.81;5076201;28;20177;-75
2022/06/01 10:34:27;;;;;;;1.83;1.20;;;;;;;23.41;30.91;96538.84;5073383;28;20526;-75
2022/06/01 10:36:55;;;;;;;1.05;1.00;;;;;;;23.12;30.79;96525.31;5076208;28;20239;-74
2022/06/01 10:39:29;;;;;;;0.90;0.90;;;;;;;23.18;30.90;96532.09;5075019;28;20271;-75
2022/06/01 10:42:03;;;;;;;1.25;1.00;;;;;;;23.05;29.88;96533.03;5057289;28;20382;-75
2022/06/01 10:44:53;;;;;;;1.25;1.00;;;;;;;22.99;30.78;96526.25;5075484;28;20303;-75
2022/06/01 10:47:42;;;;;;;1.55;1.00;;;;;;;23.21;30.91;96529.56;5074598;28;20181;-75
2022/06/01 10:50:26;;;;;;;0.90;0.90;;;;;;;23.34;29.70;96530.53;5077288;28;20601;-75
2022/06/01 10:52:59;;;;;;;1.15;1.15;;;;;;;23.30;29.72;96536.81;5074171;28;20676;-75
2022/06/01 10:55:28;;;;;;;1.00;1.00;;;;;;;23.32;30.29;96529.28;5075473;28;20669;-75
2022/06/01 10:57:57;;;;;;;2.13;1.20;;;;;;;23.59;29.92;96523.63;5074917;28;20185;-75
2022/06/01 11:00:29;;;;;;;2.53;1.15;;;;;;;23.21;29.90;96532.25;5074880;28;20204;-75
2022/06/01 11:03:17;;;;;;;1.15;1.02;;;;;;;23.04;30.19;96526.09;5074563;28;20260;-75
2022/06/01 11:05:53;;;;;;;1.10;1.00;;;;;;;23.31;30.23;96538.38;5073330;28;20184;-75
2022/06/01 11:08:28;;;;;;;1.48;1.38;;;;;;;23.18;29.85;96526.75;5069872;28;20224;-74
2022/06/01 11:11:04;;;;;;;1.15;1.05;;;;;;;23.23;30.11;96525.81;5074978;28;20544;-74
2022/06/01 11:13:47;;;;;;;1.65;1.10;;;;;;;23.47;29.79;96529.59;5073058;28;20216;-75
2022/06/01 11:16:15;;;;;;;0.90;0.90;;;;;;;23.36;30.18;96525.66;5074820;28;20205;-75
2022/06/01 11:19:01;;;;;;;0.98;0.98;;;;;;;23.58;30.04;96535.44;5074153;28;20188;-74
2022/06/01 11:21:35;;;;;;;1.38;1.15;;;;;;;23.36;29.78;96522.19;5062189;28;20187;-74
2022/06/01 11:24:07;;;;;;;0.90;0.90;;;;;;;23.96;29.54;96509.53;5074966;28;20180;-75
2022/06/01 11:26:46;;;;;;;1.77;1.10;;;;;;;24.33;29.16;96516.09;5074147;28;20183;-75
2022/06/01 11:29:17;;;;;;;2.05;1.20;;;;;;;24.36;28.49;96523.47;5073988;28;20185;-74
2022/06/01 11:31:45;;;;;;;0.80;0.80;;;;;;;24.30;27.62;96524.75;5074416;28;20211;-74
2022/06/01 11:34:19;;;;;;;2.10;1.15;;;;;;;24.61;27.36;96518.34;5074434;28;20192;-74
2022/06/01 11:37:00;;;;;;;0.95;0.95;;;;;;;24.76;26.56;96518.56;5074627;28;20247;-74
2022/06/01 11:39:50;;;;;;;0.85;0.85;;;;;;;24.88;27.06;96515.22;5073628;28;20197;-73
2022/06/01 11:42:26;;;;;;;1.23;1.13;;;;;;;24.40;28.21;96513.72;5074375;28;20268;-74
2022/06/01 11:44:54;;;;;;;1.85;1.35;;;;;;;23.94;27.51;96511.78;5073331;28;20543;-74
2022/06/01 11:47:22;;;;;;;1.20;1.20;;;;;;;24.16;28.08;96512.66;5070732;28;20657;-75
2022/06/01 11:50:17;;;;;;;0.90;0.90;;;;;;;24.04;28.83;96503.41;5073912;28;20187;-74
2022/06/01 11:53:05;;;;;;;1.02;0.95;;;;;;;23.44;28.45;96518.72;5064610;28;20255;-73
2022/06/01 11:55:44;;;;;;;1.17;1.10;;;;;;;23.85;28.32;96516.34;5073718;28;20179;-74
2022/06/01 11:58:23;;;;;;;1.25;1.00;;;;;;;23.68;29.10;96519.06;5073248;28;20187;-74
2022/06/01 12:00:54;;;;;;;4.22;1.13;;;;;;;24.12;28.84;96507.16;5076006;28;20204;-75
2022/06/01 12:03:19;;;;;;;1.88;1.70;;;;;;;23.92;28.51;96510.50;5073919;28;20182;-74
2022/06/01 12:06:14;;;;;;;1.13;1.02;;;;;;;23.99;28.60;96505.47;5073471;28;20251;-74
2022/06/01 12:08:47;;;;;;;1.00;1.00;;;;;;;23.70;29.21;96505.34;5073036;28;20200;-75
2022/06/01 12:11:34;;;;;;;2.28;1.02;;;;;;;23.98;29.23;96502.00;5039631;28;20185;-73
2022/06/01 12:14:00;;;;;;;1.33;1.20;;;;;;;24.16;28.78;96500.06;5074321;28;20189;-74
2022/06/01 12:16:28;;;;;;;1.02;1.00;;;;;;;24.31;28.87;96504.91;5074356;28;20193;-75
2022/06/01 12:18:59;;;;;;;1.10;1.10;;;;;;;24.32;28.47;96489.63;5072677;28;20589;-75